sensor_id;sensor_type;location;lat;lon;timestamp;temperature;humidity
53675;DHT22;39574;50.534;8.500;2023-02-15T00:05:15;3.5;99.9
53675;DHT22;39574;50.534;8.500;2023-02-15T00:10:24;3.4;99.9
53675;DHT22;39574;50.534;8.500;2023-02-15T00:15:30;3.3;99.9
53675;DHT22;39574;50.534;8.500;2023-02-15T00:20:37;3.3;99.9
53675;DHT22;39574;50.534;8.500;2023-02-15T00:25:37;3.2;99.9
53675;DHT22;39574;50.534;8.500;2023-02-15T00:35:18;3.3;99.9
53675;DHT22;39574;50.534;8.500;2023-02-15T00:40:21;3.2;99.9
53675;DHT22;39574;50.534;8.500;2023-02-15T00:45:31;3.3;99.9
53675;DHT22;39574;50.534;8.500;2023-02-15T00:50:34;3.2;99.9
53675;DHT22;39574;50.534;8.500;2023-02-15T00:55:34;3.2;99.9
53675;DHT22;39574;50.534;8.500;2023-02-15T01:04:40;3.2;99.9
53675;DHT22;39574;50.534;8.500;2023-02-15T01:10:06;3.3;99.9
53675;DHT22;39574;50.534;8.500;2023-02-15T01:15:12;3.3;99.9
53675;DHT22;39574;50.534;8.500;2023-02-15T01:20:12;3.3;99.9
53675;DHT22;39574;50.534;8.500;2023-02-15T01:25:20;3.3;99.9
53675;DHT22;39574;50.534;8.500;2023-02-15T01:30:21;3.1;99.9
53675;DHT22;39574;50.534;8.500;2023-02-15T01:35:27;3.0;99.9
53675;DHT22;39574;50.534;8.500;2023-02-15T01:44:58;2.9;99.9
53675;DHT22;39574;50.534;8.500;2023-02-15T01:50:02;2.8;99.9
53675;DHT22;39574;50.534;8.500;2023-02-15T01:55:00;2.7;99.9
53675;DHT22;39574;50.534;8.500;2023-02-15T02:00:12;2.8;99.9
53675;DHT22;39574;50.534;8.500;2023-02-15T02:09:29;2.9;99.9
53675;DHT22;39574;50.534;8.500;2023-02-15T02:14:45;2.9;99.9
53675;DHT22;39574;50.534;8.500;2023-02-15T02:20:00;3.0;99.9
53675;DHT22;39574;50.534;8.500;2023-02-15T02:25:12;3.0;99.9
53675;DHT22;39574;50.534;8.500;2023-02-15T02:30:16;2.9;99.9
53675;DHT22;39574;50.534;8.500;2023-02-15T02:39:14;2.9;99.9
53675;DHT22;39574;50.534;8.500;2023-02-15T02:44:13;2.9;99.9
53675;DHT22;39574;50.534;8.500;2023-02-15T02:49:30;2.9;99.9
53675;DHT22;39574;50.534;8.500;2023-02-15T02:54:40;2.9;99.9
53675;DHT22;39574;50.534;8.500;2023-02-15T02:59:55;2.9;99.9
53675;DHT22;39574;50.534;8.500;2023-02-15T03:09:37;2.9;99.9
53675;DHT22;39574;50.534;8.500;2023-02-15T03:14:42;2.9;99.9
53675;DHT22;39574;50.534;8.500;2023-02-15T03:19:48;3.0;99.9
53675;DHT22;39574;50.534;8.500;2023-02-15T03:24:51;2.9;99.9
53675;DHT22;39574;50.534;8.500;2023-02-15T03:29:51;2.9;99.9
53675;DHT22;39574;50.534;8.500;2023-02-15T03:39:18;2.8;99.9
53675;DHT22;39574;50.534;8.500;2023-02-15T03:44:54;2.7;99.9
53675;DHT22;39574;50.534;8.500;2023-02-15T03:54:25;2.6;99.9
53675;DHT22;39574;50.534;8.500;2023-02-15T03:59:26;2.4;99.9
53675;DHT22;39574;50.534;8.500;2023-02-15T04:04:38;2.2;99.9
53675;DHT22;39574;50.534;8.500;2023-02-15T04:14:07;2.3;99.9
53675;DHT22;39574;50.534;8.500;2023-02-15T04:19:10;2.5;99.9
53675;DHT22;39574;50.534;8.500;2023-02-15T04:24:16;2.6;99.9
53675;DHT22;39574;50.534;8.500;2023-02-15T04:29:22;2.7;99.9
53675;DHT22;39574;50.534;8.500;2023-02-15T04:34:35;2.7;99.9
53675;DHT22;39574;50.534;8.500;2023-02-15T04:44:02;2.6;99.9
53675;DHT22;39574;50.534;8.500;2023-02-15T04:49:09;2.5;99.9
53675;DHT22;39574;50.534;8.500;2023-02-15T04:54:09;2.5;99.9
53675;DHT22;39574;50.534;8.500;2023-02-15T04:59:23;2.5;99.9
53675;DHT22;39574;50.534;8.500;2023-02-15T05:08:34;2.7;99.9
53675;DHT22;39574;50.534;8.500;2023-02-15T05:13:42;2.9;99.9
53675;DHT22;39574;50.534;8.500;2023-02-15T05:18:49;2.9;99.9
53675;DHT22;39574;50.534;8.500;2023-02-15T05:23:51;2.8;99.9
53675;DHT22;39574;50.534;8.500;2023-02-15T05:29:00;2.7;99.9
53675;DHT22;39574;50.534;8.500;2023-02-15T05:34:00;2.7;99.9
53675;DHT22;39574;50.534;8.500;2023-02-15T05:39:02;2.7;99.9
53675;DHT22;39574;50.534;8.500;2023-02-15T05:44:13;2.7;99.9
53675;DHT22;39574;50.534;8.500;2023-02-15T05:53:51;2.7;99.9
53675;DHT22;39574;50.534;8.500;2023-02-15T05:58:54;2.6;99.9
53675;DHT22;39574;50.534;8.500;2023-02-15T06:04:07;2.5;99.9
53675;DHT22;39574;50.534;8.500;2023-02-15T06:09:10;2.4;99.9
53675;DHT22;39574;50.534;8.500;2023-02-15T06:18:16;2.4;99.9
53675;DHT22;39574;50.534;8.500;2023-02-15T06:23:32;2.5;99.9
53675;DHT22;39574;50.534;8.500;2023-02-15T06:28:44;2.5;99.9
53675;DHT22;39574;50.534;8.500;2023-02-15T06:33:58;2.5;99.9
53675;DHT22;39574;50.534;8.500;2023-02-15T06:43:27;2.5;99.9
53675;DHT22;39574;50.534;8.500;2023-02-15T06:48:35;2.6;99.9
53675;DHT22;39574;50.534;8.500;2023-02-15T06:53:40;2.5;99.9
53675;DHT22;39574;50.534;8.500;2023-02-15T06:58:50;2.5;99.9
53675;DHT22;39574;50.534;8.500;2023-02-15T07:08:17;2.4;99.9
53675;DHT22;39574;50.534;8.500;2023-02-15T07:13:21;2.3;99.9
53675;DHT22;39574;50.534;8.500;2023-02-15T07:18:30;2.3;99.9
53675;DHT22;39574;50.534;8.500;2023-02-15T07:23:42;2.3;99.9
53675;DHT22;39574;50.534;8.500;2023-02-15T07:33:05;2.3;99.9
53675;DHT22;39574;50.534;8.500;2023-02-15T07:38:31;2.3;99.9
53675;DHT22;39574;50.534;8.500;2023-02-15T07:43:34;2.4;99.9
53675;DHT22;39574;50.534;8.500;2023-02-15T07:48:41;2.6;99.9
53675;DHT22;39574;50.534;8.500;2023-02-15T07:58:06;2.7;99.9
53675;DHT22;39574;50.534;8.500;2023-02-15T08:03:07;2.6;99.9
53675;DHT22;39574;50.534;8.500;2023-02-15T08:08:15;2.5;99.9
53675;DHT22;39574;50.534;8.500;2023-02-15T08:13:30;2.3;99.9
53675;DHT22;39574;50.534;8.500;2023-02-15T08:18:32;2.2;99.9
53675;DHT22;39574;50.534;8.500;2023-02-15T08:27:38;2.3;99.9
53675;DHT22;39574;50.534;8.500;2023-02-15T08:32:46;2.4;99.9
53675;DHT22;39574;50.534;8.500;2023-02-15T08:37:53;2.6;99.9
53675;DHT22;39574;50.534;8.500;2023-02-15T08:43:05;2.8;99.9
53675;DHT22;39574;50.534;8.500;2023-02-15T08:48:10;3.0;99.9
53675;DHT22;39574;50.534;8.500;2023-02-15T08:53:19;3.2;99.9
53675;DHT22;39574;50.534;8.500;2023-02-15T08:58:22;3.2;99.9
53675;DHT22;39574;50.534;8.500;2023-02-15T09:07:24;3.1;99.9
53675;DHT22;39574;50.534;8.500;2023-02-15T09:12:46;3.1;99.9
53675;DHT22;39574;50.534;8.500;2023-02-15T09:17:56;3.1;99.9
53675;DHT22;39574;50.534;8.500;2023-02-15T09:27:43;3.1;99.9
53675;DHT22;39574;50.534;8.500;2023-02-15T09:32:55;3.2;99.9
53675;DHT22;39574;50.534;8.500;2023-02-15T09:38:08;3.4;99.9
53675;DHT22;39574;50.534;8.500;2023-02-15T09:47:43;3.5;99.9
53675;DHT22;39574;50.534;8.500;2023-02-15T09:52:53;3.5;99.9
53675;DHT22;39574;50.534;8.500;2023-02-15T09:58:03;3.6;99.9
53675;DHT22;39574;50.534;8.500;2023-02-15T10:03:10;3.7;99.9
53675;DHT22;39574;50.534;8.500;2023-02-15T10:12:36;3.6;99.9
53675;DHT22;39574;50.534;8.500;2023-02-15T10:17:47;3.5;99.9
53675;DHT22;39574;50.534;8.500;2023-02-15T10:22:46;3.6;99.9
53675;DHT22;39574;50.534;8.500;2023-02-15T10:27:57;3.7;99.9
53675;DHT22;39574;50.534;8.500;2023-02-15T10:32:58;3.6;99.9
53675;DHT22;39574;50.534;8.500;2023-02-15T10:42:37;3.5;99.9
53675;DHT22;39574;50.534;8.500;2023-02-15T10:47:51;3.5;99.9
53675;DHT22;39574;50.534;8.500;2023-02-15T10:52:53;3.6;99.9
53675;DHT22;39574;50.534;8.500;2023-02-15T11:02:20;3.7;99.9
53675;DHT22;39574;50.534;8.500;2023-02-15T11:07:28;3.8;99.9
53675;DHT22;39574;50.534;8.500;2023-02-15T11:12:32;3.9;99.9
53675;DHT22;39574;50.534;8.500;2023-02-15T11:17:46;4.1;99.9
53675;DHT22;39574;50.534;8.500;2023-02-15T11:32:41;4.3;99.9
53675;DHT22;39574;50.534;8.500;2023-02-15T11:42:19;4.4;99.9
53675;DHT22;39574;50.534;8.500;2023-02-15T11:47:31;4.5;99.9
53675;DHT22;39574;50.534;8.500;2023-02-15T11:52:35;4.5;99.9
53675;DHT22;39574;50.534;8.500;2023-02-15T12:02:15;4.6;99.9
53675;DHT22;39574;50.534;8.500;2023-02-15T12:07:17;4.7;99.9
53675;DHT22;39574;50.534;8.500;2023-02-15T12:12:28;4.7;99.9
53675;DHT22;39574;50.534;8.500;2023-02-15T12:21:54;4.8;99.9
53675;DHT22;39574;50.534;8.500;2023-02-15T12:26:58;4.9;99.9
53675;DHT22;39574;50.534;8.500;2023-02-15T12:32:10;4.9;99.9
53675;DHT22;39574;50.534;8.500;2023-02-15T12:37:10;4.9;99.9
53675;DHT22;39574;50.534;8.500;2023-02-15T12:42:17;4.8;99.9
53675;DHT22;39574;50.534;8.500;2023-02-15T12:51:50;4.7;99.9
53675;DHT22;39574;50.534;8.500;2023-02-15T12:56:49;4.7;99.9
53675;DHT22;39574;50.534;8.500;2023-02-15T13:01:56;4.6;99.9
53675;DHT22;39574;50.534;8.500;2023-02-15T13:06:59;4.6;99.9
53675;DHT22;39574;50.534;8.500;2023-02-15T13:12:08;4.7;99.9
53675;DHT22;39574;50.534;8.500;2023-02-15T13:17:08;4.7;99.9
53675;DHT22;39574;50.534;8.500;2023-02-15T13:22:12;4.8;99.9
53675;DHT22;39574;50.534;8.500;2023-02-15T13:27:14;4.8;99.9
53675;DHT22;39574;50.534;8.500;2023-02-15T13:36:49;4.8;99.9
53675;DHT22;39574;50.534;8.500;2023-02-15T13:42:04;4.8;99.9
53675;DHT22;39574;50.534;8.500;2023-02-15T13:47:06;4.7;99.9
53675;DHT22;39574;50.534;8.500;2023-02-15T13:56:35;4.6;99.9
53675;DHT22;39574;50.534;8.500;2023-02-15T14:01:36;4.7;99.9
53675;DHT22;39574;50.534;8.500;2023-02-15T14:06:51;4.7;99.9
53675;DHT22;39574;50.534;8.500;2023-02-15T14:12:09;4.6;99.9
53675;DHT22;39574;50.534;8.500;2023-02-15T14:16:58;4.6;99.9
53675;DHT22;39574;50.534;8.500;2023-02-15T14:26:06;4.5;99.9
53675;DHT22;39574;50.534;8.500;2023-02-15T14:31:37;4.2;99.9
53675;DHT22;39574;50.534;8.500;2023-02-15T14:36:36;4.1;99.9
53675;DHT22;39574;50.534;8.500;2023-02-15T14:41:37;4.0;99.9
53675;DHT22;39574;50.534;8.500;2023-02-15T14:46:52;4.0;99.9
53675;DHT22;39574;50.534;8.500;2023-02-15T14:56:17;4.1;99.9
53675;DHT22;39574;50.534;8.500;2023-02-15T15:01:15;4.1;99.9
53675;DHT22;39574;50.534;8.500;2023-02-15T15:06:23;4.1;99.9
53675;DHT22;39574;50.534;8.500;2023-02-15T15:11:42;4.1;99.9
53675;DHT22;39574;50.534;8.500;2023-02-15T15:16:30;4.0;99.9
53675;DHT22;39574;50.534;8.500;2023-02-15T15:21:51;3.8;99.9
53675;DHT22;39574;50.534;8.500;2023-02-15T15:31:18;3.6;99.9
53675;DHT22;39574;50.534;8.500;2023-02-15T15:36:23;3.6;99.9
53675;DHT22;39574;50.534;8.500;2023-02-15T15:41:19;3.6;99.9
53675;DHT22;39574;50.534;8.500;2023-02-15T15:46:53;3.7;99.9
53675;DHT22;39574;50.534;8.500;2023-02-15T15:51:32;3.7;99.9
53675;DHT22;39574;50.534;8.500;2023-02-15T15:56:34;3.7;99.9
53675;DHT22;39574;50.534;8.500;2023-02-15T16:05:57;3.8;99.9
53675;DHT22;39574;50.534;8.500;2023-02-15T16:11:13;3.8;99.9
53675;DHT22;39574;50.534;8.500;2023-02-15T16:16:24;3.8;99.9
53675;DHT22;39574;50.534;8.500;2023-02-15T16:26:05;3.8;99.9
53675;DHT22;39574;50.534;8.500;2023-02-15T16:31:20;3.8;99.9
53675;DHT22;39574;50.534;8.500;2023-02-15T16:40:50;3.8;99.9
53675;DHT22;39574;50.534;8.500;2023-02-15T16:45:50;3.8;99.9
53675;DHT22;39574;50.534;8.500;2023-02-15T16:50:59;3.8;99.9
53675;DHT22;39574;50.534;8.500;2023-02-15T16:55:59;3.6;99.9
53675;DHT22;39574;50.534;8.500;2023-02-15T17:01:02;3.6;99.9
53675;DHT22;39574;50.534;8.500;2023-02-15T17:06:18;3.6;99.9
53675;DHT22;39574;50.534;8.500;2023-02-15T17:11:14;3.7;99.9
53675;DHT22;39574;50.534;8.500;2023-02-15T17:20:28;3.8;99.9
53675;DHT22;39574;50.534;8.500;2023-02-15T17:25:48;3.7;99.9
53675;DHT22;39574;50.534;8.500;2023-02-15T17:30:51;3.7;99.9
53675;DHT22;39574;50.534;8.500;2023-02-15T17:36:03;3.6;99.9
53675;DHT22;39574;50.534;8.500;2023-02-15T17:41:02;3.6;99.9
53675;DHT22;39574;50.534;8.500;2023-02-15T17:50:19;3.6;99.9
53675;DHT22;39574;50.534;8.500;2023-02-15T17:55:29;3.6;99.9
53675;DHT22;39574;50.534;8.500;2023-02-15T18:00:30;3.7;99.9
53675;DHT22;39574;50.534;8.500;2023-02-15T18:05:42;3.8;99.9
53675;DHT22;39574;50.534;8.500;2023-02-15T18:10:43;3.8;99.9
53675;DHT22;39574;50.534;8.500;2023-02-15T18:15:55;3.7;99.9
53675;DHT22;39574;50.534;8.500;2023-02-15T18:25:22;3.5;99.9
53675;DHT22;39574;50.534;8.500;2023-02-15T18:30:34;3.5;99.9
53675;DHT22;39574;50.534;8.500;2023-02-15T18:35:48;3.5;99.9
53675;DHT22;39574;50.534;8.500;2023-02-15T18:40:50;3.5;99.9
53675;DHT22;39574;50.534;8.500;2023-02-15T18:50:01;3.5;99.9
53675;DHT22;39574;50.534;8.500;2023-02-15T18:55:32;3.6;99.9
53675;DHT22;39574;50.534;8.500;2023-02-15T19:00:46;3.6;99.9
53675;DHT22;39574;50.534;8.500;2023-02-15T19:10:12;3.6;99.9
53675;DHT22;39574;50.534;8.500;2023-02-15T19:15:13;3.6;99.9
53675;DHT22;39574;50.534;8.500;2023-02-15T19:20:26;3.6;99.9
53675;DHT22;39574;50.534;8.500;2023-02-15T19:25:37;3.7;99.9
53675;DHT22;39574;50.534;8.500;2023-02-15T19:30:37;3.8;99.9
53675;DHT22;39574;50.534;8.500;2023-02-15T19:40:15;3.7;99.9
53675;DHT22;39574;50.534;8.500;2023-02-15T19:45:15;3.6;99.9
53675;DHT22;39574;50.534;8.500;2023-02-15T19:50:27;3.4;99.9
53675;DHT22;39574;50.534;8.500;2023-02-15T19:55:28;3.3;99.9
53675;DHT22;39574;50.534;8.500;2023-02-15T20:04:56;3.3;99.9
53675;DHT22;39574;50.534;8.500;2023-02-15T20:09:56;3.4;99.9
53675;DHT22;39574;50.534;8.500;2023-02-15T20:15:08;3.5;99.9
53675;DHT22;39574;50.534;8.500;2023-02-15T20:20:08;3.5;99.9
53675;DHT22;39574;50.534;8.500;2023-02-15T20:25:18;3.6;99.9
53675;DHT22;39574;50.534;8.500;2023-02-15T20:34:48;3.6;99.9
53675;DHT22;39574;50.534;8.500;2023-02-15T20:39:50;3.6;99.9
53675;DHT22;39574;50.534;8.500;2023-02-15T20:45:07;3.5;99.9
53675;DHT22;39574;50.534;8.500;2023-02-15T20:50:10;3.5;99.9
53675;DHT22;39574;50.534;8.500;2023-02-15T20:59:41;3.5;99.9
53675;DHT22;39574;50.534;8.500;2023-02-15T21:04:54;3.6;99.9
53675;DHT22;39574;50.534;8.500;2023-02-15T21:10:09;3.5;99.9
53675;DHT22;39574;50.534;8.500;2023-02-15T21:19:36;3.4;99.9
53675;DHT22;39574;50.534;8.500;2023-02-15T21:24:49;3.4;99.9
53675;DHT22;39574;50.534;8.500;2023-02-15T21:30:00;3.3;99.9
53675;DHT22;39574;50.534;8.500;2023-02-15T21:35:05;3.3;99.9
53675;DHT22;39574;50.534;8.500;2023-02-15T21:44:43;3.3;99.9
53675;DHT22;39574;50.534;8.500;2023-02-15T21:49:57;3.4;99.9
53675;DHT22;39574;50.534;8.500;2023-02-15T21:59:26;3.5;99.9
53675;DHT22;39574;50.534;8.500;2023-02-15T22:04:40;3.6;99.9
53675;DHT22;39574;50.534;8.500;2023-02-15T22:09:52;3.6;99.9
53675;DHT22;39574;50.534;8.500;2023-02-15T22:14:52;3.6;99.9
53675;DHT22;39574;50.534;8.500;2023-02-15T22:19:53;3.5;99.9
53675;DHT22;39574;50.534;8.500;2023-02-15T22:29:12;3.5;99.9
53675;DHT22;39574;50.534;8.500;2023-02-15T22:34:21;3.6;99.9
53675;DHT22;39574;50.534;8.500;2023-02-15T22:39:16;3.6;99.9
53675;DHT22;39574;50.534;8.500;2023-02-15T22:44:25;3.6;99.9
53675;DHT22;39574;50.534;8.500;2023-02-15T22:49:29;3.6;99.9
53675;DHT22;39574;50.534;8.500;2023-02-15T22:54:33;3.5;99.9
53675;DHT22;39574;50.534;8.500;2023-02-15T22:59:33;3.5;99.9
53675;DHT22;39574;50.534;8.500;2023-02-15T23:04:34;3.6;99.9
53675;DHT22;39574;50.534;8.500;2023-02-15T23:09:35;3.5;99.9
53675;DHT22;39574;50.534;8.500;2023-02-15T23:19:04;3.5;99.9
53675;DHT22;39574;50.534;8.500;2023-02-15T23:24:08;3.6;99.9
53675;DHT22;39574;50.534;8.500;2023-02-15T23:29:12;3.6;99.9
53675;DHT22;39574;50.534;8.500;2023-02-15T23:34:16;3.5;99.9
53675;DHT22;39574;50.534;8.500;2023-02-15T23:39:29;3.5;99.9
53675;DHT22;39574;50.534;8.500;2023-02-15T23:49:08;3.4;99.9
53675;DHT22;39574;50.534;8.500;2023-02-15T23:54:10;3.3;99.9
53675;DHT22;39574;50.534;8.500;2023-02-15T23:59:26;3.2;99.9
